sensor_id;sensor_type;location;lat;lon;timestamp;temperature;humidity
46217;DHT22;47258;59.424;13.482;2023-04-01T00:00:49;-2.90;99.90
46217;DHT22;47258;59.424;13.482;2023-04-01T00:03:18;-2.90;99.90
46217;DHT22;47258;59.424;13.482;2023-04-01T00:05:46;-3.00;99.90
46217;DHT22;47258;59.424;13.482;2023-04-01T00:08:13;-3.00;99.90
46217;DHT22;47258;59.424;13.482;2023-04-01T00:10:40;-3.00;99.90
46217;DHT22;47258;59.424;13.482;2023-04-01T00:13:07;-3.00;99.90
46217;DHT22;47258;59.424;13.482;2023-04-01T00:15:33;-3.10;99.90
46217;DHT22;47258;59.424;13.482;2023-04-01T00:18:00;-3.10;99.90
46217;DHT22;47258;59.424;13.482;2023-04-01T00:20:28;-3.10;99.90
46217;DHT22;47258;59.424;13.482;2023-04-01T00:22:55;-3.20;99.90
46217;DHT22;47258;59.424;13.482;2023-04-01T00:25:22;-3.20;99.90
46217;DHT22;47258;59.424;13.482;2023-04-01T00:27:49;-3.20;99.90
46217;DHT22;47258;59.424;13.482;2023-04-01T00:30:16;-3.30;99.90
46217;DHT22;47258;59.424;13.482;2023-04-01T00:32:43;-3.30;99.90
46217;DHT22;47258;59.424;13.482;2023-04-01T00:35:10;-3.30;99.90
46217;DHT22;47258;59.424;13.482;2023-04-01T00:37:39;-3.40;99.90
46217;DHT22;47258;59.424;13.482;2023-04-01T00:40:06;-3.40;99.90
46217;DHT22;47258;59.424;13.482;2023-04-01T00:42:33;-3.40;99.90
46217;DHT22;47258;59.424;13.482;2023-04-01T00:47:42;-3.50;99.90
46217;DHT22;47258;59.424;13.482;2023-04-01T00:50:09;-3.50;99.90
46217;DHT22;47258;59.424;13.482;2023-04-01T00:52:36;-3.60;99.90
46217;DHT22;47258;59.424;13.482;2023-04-01T00:55:04;-3.60;99.90
46217;DHT22;47258;59.424;13.482;2023-04-01T00:57:34;-3.60;99.90
46217;DHT22;47258;59.424;13.482;2023-04-01T01:00:03;-3.70;99.90
46217;DHT22;47258;59.424;13.482;2023-04-01T01:02:32;-3.70;99.90
46217;DHT22;47258;59.424;13.482;2023-04-01T01:04:59;-3.70;99.90
46217;DHT22;47258;59.424;13.482;2023-04-01T01:07:26;-3.70;99.90
46217;DHT22;47258;59.424;13.482;2023-04-01T01:09:57;-3.80;99.90
46217;DHT22;47258;59.424;13.482;2023-04-01T01:12:29;-3.80;99.90
46217;DHT22;47258;59.424;13.482;2023-04-01T01:15:02;-3.80;99.90
46217;DHT22;47258;59.424;13.482;2023-04-01T01:17:35;-3.90;99.90
46217;DHT22;47258;59.424;13.482;2023-04-01T01:20:10;-3.90;99.90
46217;DHT22;47258;59.424;13.482;2023-04-01T01:22:49;-3.90;99.90
46217;DHT22;47258;59.424;13.482;2023-04-01T01:25:30;-3.90;99.90
46217;DHT22;47258;59.424;13.482;2023-04-01T01:28:01;-4.00;99.90
46217;DHT22;47258;59.424;13.482;2023-04-01T01:30:40;-4.00;99.90
46217;DHT22;47258;59.424;13.482;2023-04-01T01:33:14;-4.00;99.90
46217;DHT22;47258;59.424;13.482;2023-04-01T01:35:46;-4.00;99.90
46217;DHT22;47258;59.424;13.482;2023-04-01T01:38:15;-4.00;99.90
46217;DHT22;47258;59.424;13.482;2023-04-01T01:40:43;-4.10;99.90
46217;DHT22;47258;59.424;13.482;2023-04-01T01:43:12;-4.10;99.90
46217;DHT22;47258;59.424;13.482;2023-04-01T01:45:40;-4.10;99.90
46217;DHT22;47258;59.424;13.482;2023-04-01T01:48:09;-4.10;99.90
46217;DHT22;47258;59.424;13.482;2023-04-01T01:50:36;-4.10;99.90
46217;DHT22;47258;59.424;13.482;2023-04-01T01:53:07;-4.20;99.90
46217;DHT22;47258;59.424;13.482;2023-04-01T01:55:35;-4.20;99.90
46217;DHT22;47258;59.424;13.482;2023-04-01T01:58:04;-4.20;99.90
46217;DHT22;47258;59.424;13.482;2023-04-01T02:00:32;-4.20;99.90
46217;DHT22;47258;59.424;13.482;2023-04-01T02:02:59;-4.20;99.90
46217;DHT22;47258;59.424;13.482;2023-04-01T02:05:27;-4.20;99.90
46217;DHT22;47258;59.424;13.482;2023-04-01T02:07:57;-4.20;99.90
46217;DHT22;47258;59.424;13.482;2023-04-01T02:10:27;-4.20;99.90
46217;DHT22;47258;59.424;13.482;2023-04-01T02:12:56;-4.20;99.90
46217;DHT22;47258;59.424;13.482;2023-04-01T02:15:24;-4.20;99.90
46217;DHT22;47258;59.424;13.482;2023-04-01T02:17:52;-4.20;99.90
46217;DHT22;47258;59.424;13.482;2023-04-01T02:20:22;-4.20;99.90
46217;DHT22;47258;59.424;13.482;2023-04-01T02:22:50;-4.20;99.90
46217;DHT22;47258;59.424;13.482;2023-04-01T02:25:18;-4.20;99.90
46217;DHT22;47258;59.424;13.482;2023-04-01T02:27:48;-4.20;99.90
46217;DHT22;47258;59.424;13.482;2023-04-01T02:30:15;-4.20;99.90
46217;DHT22;47258;59.424;13.482;2023-04-01T02:32:43;-4.20;99.90
46217;DHT22;47258;59.424;13.482;2023-04-01T02:35:10;-4.20;99.90
46217;DHT22;47258;59.424;13.482;2023-04-01T02:37:38;-4.20;99.90
46217;DHT22;47258;59.424;13.482;2023-04-01T02:40:08;-4.20;99.90
46217;DHT22;47258;59.424;13.482;2023-04-01T02:42:35;-4.20;99.90
46217;DHT22;47258;59.424;13.482;2023-04-01T02:45:03;-4.20;99.90
46217;DHT22;47258;59.424;13.482;2023-04-01T02:47:30;-4.20;99.90
46217;DHT22;47258;59.424;13.482;2023-04-01T02:49:57;-4.20;99.90
46217;DHT22;47258;59.424;13.482;2023-04-01T02:52:24;-4.20;99.90
46217;DHT22;47258;59.424;13.482;2023-04-01T02:54:51;-4.20;99.90
46217;DHT22;47258;59.424;13.482;2023-04-01T02:57:18;-4.20;99.90
46217;DHT22;47258;59.424;13.482;2023-04-01T02:59:45;-4.20;99.90
46217;DHT22;47258;59.424;13.482;2023-04-01T03:02:13;-4.20;99.90
46217;DHT22;47258;59.424;13.482;2023-04-01T03:04:40;-4.20;99.90
46217;DHT22;47258;59.424;13.482;2023-04-01T03:07:07;-4.20;99.90
46217;DHT22;47258;59.424;13.482;2023-04-01T03:09:35;-4.20;99.90
46217;DHT22;47258;59.424;13.482;2023-04-01T03:12:02;-4.20;99.90
46217;DHT22;47258;59.424;13.482;2023-04-01T03:14:29;-4.20;99.90
46217;DHT22;47258;59.424;13.482;2023-04-01T03:16:55;-4.20;99.90
46217;DHT22;47258;59.424;13.482;2023-04-01T03:19:24;-4.20;99.90
46217;DHT22;47258;59.424;13.482;2023-04-01T03:21:50;-4.20;99.90
46217;DHT22;47258;59.424;13.482;2023-04-01T03:24:17;-4.20;99.90
46217;DHT22;47258;59.424;13.482;2023-04-01T03:26:44;-4.10;99.90
46217;DHT22;47258;59.424;13.482;2023-04-01T03:29:11;-4.10;99.90
46217;DHT22;47258;59.424;13.482;2023-04-01T03:31:38;-4.10;99.90
46217;DHT22;47258;59.424;13.482;2023-04-01T03:34:04;-4.20;99.90
46217;DHT22;47258;59.424;13.482;2023-04-01T03:36:32;-4.20;99.90
46217;DHT22;47258;59.424;13.482;2023-04-01T03:38:59;-4.10;99.90
46217;DHT22;47258;59.424;13.482;2023-04-01T03:41:26;-4.20;99.90
46217;DHT22;47258;59.424;13.482;2023-04-01T03:43:53;-4.10;99.90
46217;DHT22;47258;59.424;13.482;2023-04-01T03:46:20;-4.10;99.90
46217;DHT22;47258;59.424;13.482;2023-04-01T03:48:47;-4.10;99.90
46217;DHT22;47258;59.424;13.482;2023-04-01T03:51:13;-4.10;99.90
46217;DHT22;47258;59.424;13.482;2023-04-01T03:53:42;-4.10;99.90
46217;DHT22;47258;59.424;13.482;2023-04-01T03:56:09;-4.10;99.90
46217;DHT22;47258;59.424;13.482;2023-04-01T03:58:35;-4.10;99.90
46217;DHT22;47258;59.424;13.482;2023-04-01T04:01:02;-4.10;99.90
46217;DHT22;47258;59.424;13.482;2023-04-01T04:03:29;-4.10;99.90
46217;DHT22;47258;59.424;13.482;2023-04-01T04:05:56;-4.10;99.90
46217;DHT22;47258;59.424;13.482;2023-04-01T04:08:23;-4.10;99.90
46217;DHT22;47258;59.424;13.482;2023-04-01T04:10:55;-4.10;99.90
46217;DHT22;47258;59.424;13.482;2023-04-01T04:13:22;-4.10;99.90
46217;DHT22;47258;59.424;13.482;2023-04-01T04:15:49;-4.10;99.90
46217;DHT22;47258;59.424;13.482;2023-04-01T04:18:16;-4.10;99.90
46217;DHT22;47258;59.424;13.482;2023-04-01T04:20:43;-4.10;99.90
46217;DHT22;47258;59.424;13.482;2023-04-01T04:23:11;-4.10;99.90
46217;DHT22;47258;59.424;13.482;2023-04-01T04:25:37;-4.10;99.90
46217;DHT22;47258;59.424;13.482;2023-04-01T04:28:06;-4.10;99.90
46217;DHT22;47258;59.424;13.482;2023-04-01T04:30:32;-4.10;99.90
46217;DHT22;47258;59.424;13.482;2023-04-01T04:32:59;-4.10;99.90
46217;DHT22;47258;59.424;13.482;2023-04-01T04:35:27;-4.10;99.90
46217;DHT22;47258;59.424;13.482;2023-04-01T04:37:53;-4.10;99.90
46217;DHT22;47258;59.424;13.482;2023-04-01T04:40:20;-4.10;99.90
46217;DHT22;47258;59.424;13.482;2023-04-01T04:42:47;-4.10;99.90
46217;DHT22;47258;59.424;13.482;2023-04-01T04:45:15;-4.10;99.90
46217;DHT22;47258;59.424;13.482;2023-04-01T04:47:42;-4.10;99.90
46217;DHT22;47258;59.424;13.482;2023-04-01T04:50:09;-4.10;99.90
46217;DHT22;47258;59.424;13.482;2023-04-01T04:52:37;-4.10;99.90
46217;DHT22;47258;59.424;13.482;2023-04-01T04:55:04;-4.10;99.90
46217;DHT22;47258;59.424;13.482;2023-04-01T04:57:31;-4.20;99.90
46217;DHT22;47258;59.424;13.482;2023-04-01T04:59:58;-4.20;99.90
46217;DHT22;47258;59.424;13.482;2023-04-01T05:02:26;-4.20;99.90
46217;DHT22;47258;59.424;13.482;2023-04-01T05:04:53;-4.10;99.90
46217;DHT22;47258;59.424;13.482;2023-04-01T05:07:19;-4.20;99.90
46217;DHT22;47258;59.424;13.482;2023-04-01T05:09:46;-4.20;99.90
46217;DHT22;47258;59.424;13.482;2023-04-01T05:12:13;-4.20;99.90
46217;DHT22;47258;59.424;13.482;2023-04-01T05:14:40;-4.10;99.90
46217;DHT22;47258;59.424;13.482;2023-04-01T05:17:08;-4.10;99.90
46217;DHT22;47258;59.424;13.482;2023-04-01T05:19:36;-4.20;99.90
46217;DHT22;47258;59.424;13.482;2023-04-01T05:22:03;-4.10;99.90
46217;DHT22;47258;59.424;13.482;2023-04-01T05:24:30;-4.10;99.90
46217;DHT22;47258;59.424;13.482;2023-04-01T05:26:57;-4.10;99.90
46217;DHT22;47258;59.424;13.482;2023-04-01T05:29:24;-4.10;99.90
46217;DHT22;47258;59.424;13.482;2023-04-01T05:31:50;-4.10;99.90
46217;DHT22;47258;59.424;13.482;2023-04-01T05:34:17;-4.00;99.90
46217;DHT22;47258;59.424;13.482;2023-04-01T05:36:45;-4.00;99.90
46217;DHT22;47258;59.424;13.482;2023-04-01T05:39:12;-4.00;99.90
46217;DHT22;47258;59.424;13.482;2023-04-01T05:41:39;-4.00;99.90
46217;DHT22;47258;59.424;13.482;2023-04-01T05:44:06;-4.00;99.90
46217;DHT22;47258;59.424;13.482;2023-04-01T05:46:33;-4.00;99.90
46217;DHT22;47258;59.424;13.482;2023-04-01T05:49:00;-3.90;99.90
46217;DHT22;47258;59.424;13.482;2023-04-01T05:51:27;-3.90;99.90
46217;DHT22;47258;59.424;13.482;2023-04-01T05:53:55;-3.90;99.90
46217;DHT22;47258;59.424;13.482;2023-04-01T05:56:22;-3.90;99.90
46217;DHT22;47258;59.424;13.482;2023-04-01T05:58:50;-3.80;99.90
46217;DHT22;47258;59.424;13.482;2023-04-01T06:01:17;-3.80;99.90
46217;DHT22;47258;59.424;13.482;2023-04-01T06:03:44;-3.80;99.90
46217;DHT22;47258;59.424;13.482;2023-04-01T06:06:13;-3.70;99.90
46217;DHT22;47258;59.424;13.482;2023-04-01T06:08:41;-3.70;99.90
46217;DHT22;47258;59.424;13.482;2023-04-01T06:11:14;-3.70;99.90
46217;DHT22;47258;59.424;13.482;2023-04-01T06:13:47;-3.60;99.90
46217;DHT22;47258;59.424;13.482;2023-04-01T06:16:21;-3.60;99.90
46217;DHT22;47258;59.424;13.482;2023-04-01T06:18:55;-3.50;99.90
46217;DHT22;47258;59.424;13.482;2023-04-01T06:21:35;-3.50;99.90
46217;DHT22;47258;59.424;13.482;2023-04-01T06:24:07;-3.50;99.90
46217;DHT22;47258;59.424;13.482;2023-04-01T06:26:43;-3.40;99.90
46217;DHT22;47258;59.424;13.482;2023-04-01T06:29:23;-3.40;99.90
46217;DHT22;47258;59.424;13.482;2023-04-01T06:32:06;-3.30;99.90
46217;DHT22;47258;59.424;13.482;2023-04-01T06:37:27;-3.20;99.90
46217;DHT22;47258;59.424;13.482;2023-04-01T06:40:12;-3.10;99.90
46217;DHT22;47258;59.424;13.482;2023-04-01T06:42:52;-3.10;99.90
46217;DHT22;47258;59.424;13.482;2023-04-01T06:45:27;-3.00;99.90
46217;DHT22;47258;59.424;13.482;2023-04-01T06:47:58;-2.90;99.90
46217;DHT22;47258;59.424;13.482;2023-04-01T06:50:26;-2.80;99.90
46217;DHT22;47258;59.424;13.482;2023-04-01T06:52:58;-2.70;99.90
46217;DHT22;47258;59.424;13.482;2023-04-01T06:55:29;-2.40;99.90
46217;DHT22;47258;59.424;13.482;2023-04-01T06:58:02;-2.10;99.90
46217;DHT22;47258;59.424;13.482;2023-04-01T07:00:31;-1.70;99.90
46217;DHT22;47258;59.424;13.482;2023-04-01T07:03:01;-1.40;99.90
46217;DHT22;47258;59.424;13.482;2023-04-01T07:05:30;-1.10;99.90
46217;DHT22;47258;59.424;13.482;2023-04-01T07:07:57;-0.80;99.90
46217;DHT22;47258;59.424;13.482;2023-04-01T07:10:31;-0.50;99.90
46217;DHT22;47258;59.424;13.482;2023-04-01T07:13:00;0.00;99.90
46217;DHT22;47258;59.424;13.482;2023-04-01T07:15:30;0.60;99.90
46217;DHT22;47258;59.424;13.482;2023-04-01T07:18:02;1.20;99.90
46217;DHT22;47258;59.424;13.482;2023-04-01T07:20:29;1.80;99.90
46217;DHT22;47258;59.424;13.482;2023-04-01T07:22:58;2.20;99.90
46217;DHT22;47258;59.424;13.482;2023-04-01T07:25:26;2.60;99.90
46217;DHT22;47258;59.424;13.482;2023-04-01T07:27:54;3.10;99.90
46217;DHT22;47258;59.424;13.482;2023-04-01T07:30:23;3.60;99.90
46217;DHT22;47258;59.424;13.482;2023-04-01T07:32:53;4.20;99.90
46217;DHT22;47258;59.424;13.482;2023-04-01T07:35:23;4.70;99.90
46217;DHT22;47258;59.424;13.482;2023-04-01T07:37:58;5.00;99.90
46217;DHT22;47258;59.424;13.482;2023-04-01T07:40:29;5.20;99.90
46217;DHT22;47258;59.424;13.482;2023-04-01T07:43:11;5.50;99.90
46217;DHT22;47258;59.424;13.482;2023-04-01T07:45:42;5.70;99.90
46217;DHT22;47258;59.424;13.482;2023-04-01T07:48:16;5.90;99.90
46217;DHT22;47258;59.424;13.482;2023-04-01T07:50:46;6.10;99.90
46217;DHT22;47258;59.424;13.482;2023-04-01T07:53:17;6.40;99.90
46217;DHT22;47258;59.424;13.482;2023-04-01T07:55:49;6.90;99.90
46217;DHT22;47258;59.424;13.482;2023-04-01T07:58:18;7.50;99.90
46217;DHT22;47258;59.424;13.482;2023-04-01T08:00:49;8.30;99.90
46217;DHT22;47258;59.424;13.482;2023-04-01T08:03:26;9.10;99.90
46217;DHT22;47258;59.424;13.482;2023-04-01T08:05:55;9.90;99.90
46217;DHT22;47258;59.424;13.482;2023-04-01T08:08:27;10.70;99.90
46217;DHT22;47258;59.424;13.482;2023-04-01T08:10:57;11.30;99.90
46217;DHT22;47258;59.424;13.482;2023-04-01T08:13:29;11.90;99.00
46217;DHT22;47258;59.424;13.482;2023-04-01T08:16:01;12.40;97.60
46217;DHT22;47258;59.424;13.482;2023-04-01T08:18:34;12.90;96.50
46217;DHT22;47258;59.424;13.482;2023-04-01T08:21:05;13.30;95.40
46217;DHT22;47258;59.424;13.482;2023-04-01T08:23:36;13.70;93.40
46217;DHT22;47258;59.424;13.482;2023-04-01T08:26:04;14.10;91.70
46217;DHT22;47258;59.424;13.482;2023-04-01T08:28:34;14.30;90.20
46217;DHT22;47258;59.424;13.482;2023-04-01T08:31:03;14.40;87.90
46217;DHT22;47258;59.424;13.482;2023-04-01T08:33:31;14.60;86.00
46217;DHT22;47258;59.424;13.482;2023-04-01T08:36:01;14.70;85.20
46217;DHT22;47258;59.424;13.482;2023-04-01T08:38:30;14.80;83.20
46217;DHT22;47258;59.424;13.482;2023-04-01T08:40:59;14.70;82.30
46217;DHT22;47258;59.424;13.482;2023-04-01T08:46:18;14.60;79.30
46217;DHT22;47258;59.424;13.482;2023-04-01T08:48:53;14.20;77.80
46217;DHT22;47258;59.424;13.482;2023-04-01T08:51:35;13.90;76.40
46217;DHT22;47258;59.424;13.482;2023-04-01T08:54:17;13.80;76.50
46217;DHT22;47258;59.424;13.482;2023-04-01T08:56:50;14.00;76.20
46217;DHT22;47258;59.424;13.482;2023-04-01T08:59:36;14.10;76.20
46217;DHT22;47258;59.424;13.482;2023-04-01T09:05:00;13.80;75.00
46217;DHT22;47258;59.424;13.482;2023-04-01T09:07:38;13.40;74.70
46217;DHT22;47258;59.424;13.482;2023-04-01T09:10:30;13.40;75.90
46217;DHT22;47258;59.424;13.482;2023-04-01T09:13:19;13.80;74.90
46217;DHT22;47258;59.424;13.482;2023-04-01T09:16:02;14.40;74.70
46217;DHT22;47258;59.424;13.482;2023-04-01T09:21:24;14.90;70.00
46217;DHT22;47258;59.424;13.482;2023-04-01T09:26:50;14.80;69.90
46217;DHT22;47258;59.424;13.482;2023-04-01T09:29:25;14.80;69.10
46217;DHT22;47258;59.424;13.482;2023-04-01T09:32:10;14.70;69.00
46217;DHT22;47258;59.424;13.482;2023-04-01T09:37:39;14.00;69.50
46217;DHT22;47258;59.424;13.482;2023-04-01T09:40:14;13.40;68.90
46217;DHT22;47258;59.424;13.482;2023-04-01T09:42:44;12.60;68.50
46217;DHT22;47258;59.424;13.482;2023-04-01T09:45:17;11.90;69.50
46217;DHT22;47258;59.424;13.482;2023-04-01T09:47:51;11.30;69.80
46217;DHT22;47258;59.424;13.482;2023-04-01T09:53:09;10.20;72.30
46217;DHT22;47258;59.424;13.482;2023-04-01T10:01:22;9.00;74.60
46217;DHT22;47258;59.424;13.482;2023-04-01T10:12:40;7.90;77.20
46217;DHT22;47258;59.424;13.482;2023-04-01T10:18:07;7.50;79.50
46217;DHT22;47258;59.424;13.482;2023-04-01T10:20:54;7.40;79.30
46217;DHT22;47258;59.424;13.482;2023-04-01T10:26:23;7.20;81.40
46217;DHT22;47258;59.424;13.482;2023-04-01T10:29:02;7.10;81.50
46217;DHT22;47258;59.424;13.482;2023-04-01T10:34:38;6.90;83.10
46217;DHT22;47258;59.424;13.482;2023-04-01T10:37:15;6.90;82.70
46217;DHT22;47258;59.424;13.482;2023-04-01T10:40:00;6.80;84.50
46217;DHT22;47258;59.424;13.482;2023-04-01T10:45:36;6.70;86.50
46217;DHT22;47258;59.424;13.482;2023-04-01T10:48:21;6.70;86.20
46217;DHT22;47258;59.424;13.482;2023-04-01T10:50:57;6.70;87.10
46217;DHT22;47258;59.424;13.482;2023-04-01T10:53:32;6.70;87.40
46217;DHT22;47258;59.424;13.482;2023-04-01T10:56:06;6.70;87.50
46217;DHT22;47258;59.424;13.482;2023-04-01T10:58:40;6.70;87.40
46217;DHT22;47258;59.424;13.482;2023-04-01T11:01:27;6.70;89.10
46217;DHT22;47258;59.424;13.482;2023-04-01T11:09:38;6.60;87.90
46217;DHT22;47258;59.424;13.482;2023-04-01T11:12:14;6.60;87.70
46217;DHT22;47258;59.424;13.482;2023-04-01T11:15:01;6.50;86.80
46217;DHT22;47258;59.424;13.482;2023-04-01T11:23:03;6.50;86.90
46217;DHT22;47258;59.424;13.482;2023-04-01T11:25:41;6.40;87.40
46217;DHT22;47258;59.424;13.482;2023-04-01T11:31:01;6.40;87.10
46217;DHT22;47258;59.424;13.482;2023-04-01T11:33:31;6.40;87.30
46217;DHT22;47258;59.424;13.482;2023-04-01T11:39:00;6.40;88.60
46217;DHT22;47258;59.424;13.482;2023-04-01T11:41:32;6.40;88.20
46217;DHT22;47258;59.424;13.482;2023-04-01T11:44:07;6.40;88.90
46217;DHT22;47258;59.424;13.482;2023-04-01T11:46:39;6.40;88.10
46217;DHT22;47258;59.424;13.482;2023-04-01T11:49:12;6.40;87.70
46217;DHT22;47258;59.424;13.482;2023-04-01T11:51:53;6.40;88.00
46217;DHT22;47258;59.424;13.482;2023-04-01T11:54:27;6.40;88.50
46217;DHT22;47258;59.424;13.482;2023-04-01T11:57:00;6.40;89.50
46217;DHT22;47258;59.424;13.482;2023-04-01T11:59:37;6.40;90.40
46217;DHT22;47258;59.424;13.482;2023-04-01T12:02:09;6.50;90.20
46217;DHT22;47258;59.424;13.482;2023-04-01T12:07:27;6.50;90.10
46217;DHT22;47258;59.424;13.482;2023-04-01T12:09:58;6.50;90.10
46217;DHT22;47258;59.424;13.482;2023-04-01T12:12:32;6.50;90.10
46217;DHT22;47258;59.424;13.482;2023-04-01T12:15:05;6.50;89.10
46217;DHT22;47258;59.424;13.482;2023-04-01T12:17:39;6.50;89.60
46217;DHT22;47258;59.424;13.482;2023-04-01T12:23:04;6.50;90.00
46217;DHT22;47258;59.424;13.482;2023-04-01T12:25:44;6.50;89.30
46217;DHT22;47258;59.424;13.482;2023-04-01T12:28:18;6.50;89.90
46217;DHT22;47258;59.424;13.482;2023-04-01T12:30:50;6.50;90.50
46217;DHT22;47258;59.424;13.482;2023-04-01T12:33:28;6.50;90.60
46217;DHT22;47258;59.424;13.482;2023-04-01T12:36:00;6.50;90.40
46217;DHT22;47258;59.424;13.482;2023-04-01T12:38:36;6.50;90.60
46217;DHT22;47258;59.424;13.482;2023-04-01T12:41:09;6.60;90.00
46217;DHT22;47258;59.424;13.482;2023-04-01T12:46:20;6.60;89.60
46217;DHT22;47258;59.424;13.482;2023-04-01T12:49:10;6.60;89.90
46217;DHT22;47258;59.424;13.482;2023-04-01T12:51:44;6.60;90.70
46217;DHT22;47258;59.424;13.482;2023-04-01T12:57:02;6.70;90.50
46217;DHT22;47258;59.424;13.482;2023-04-01T12:59:37;6.70;90.70
46217;DHT22;47258;59.424;13.482;2023-04-01T13:02:18;6.70;91.00
46217;DHT22;47258;59.424;13.482;2023-04-01T13:04:58;6.70;90.00
46217;DHT22;47258;59.424;13.482;2023-04-01T13:07:42;6.70;89.40
46217;DHT22;47258;59.424;13.482;2023-04-01T13:10:13;6.70;90.00
46217;DHT22;47258;59.424;13.482;2023-04-01T13:12:50;6.70;88.60
46217;DHT22;47258;59.424;13.482;2023-04-01T13:15:25;6.70;90.00
46217;DHT22;47258;59.424;13.482;2023-04-01T13:17:56;6.70;90.50
46217;DHT22;47258;59.424;13.482;2023-04-01T13:20:32;6.80;90.00
46217;DHT22;47258;59.424;13.482;2023-04-01T13:23:03;6.70;89.40
46217;DHT22;47258;59.424;13.482;2023-04-01T13:25:36;6.80;89.50
46217;DHT22;47258;59.424;13.482;2023-04-01T13:28:06;6.70;90.10
46217;DHT22;47258;59.424;13.482;2023-04-01T13:30:37;6.80;90.20
46217;DHT22;47258;59.424;13.482;2023-04-01T13:33:10;6.80;89.00
46217;DHT22;47258;59.424;13.482;2023-04-01T13:35:41;6.80;88.40
46217;DHT22;47258;59.424;13.482;2023-04-01T13:38:16;6.80;89.50
46217;DHT22;47258;59.424;13.482;2023-04-01T13:40:49;6.80;90.50
46217;DHT22;47258;59.424;13.482;2023-04-01T13:43:19;6.80;90.60
46217;DHT22;47258;59.424;13.482;2023-04-01T13:45:54;6.80;90.60
46217;DHT22;47258;59.424;13.482;2023-04-01T13:48:33;6.80;90.00
46217;DHT22;47258;59.424;13.482;2023-04-01T13:51:14;6.80;90.10
46217;DHT22;47258;59.424;13.482;2023-04-01T13:56:32;6.80;88.80
46217;DHT22;47258;59.424;13.482;2023-04-01T13:59:05;6.80;88.10
46217;DHT22;47258;59.424;13.482;2023-04-01T14:01:38;6.80;89.20
46217;DHT22;47258;59.424;13.482;2023-04-01T14:06:57;6.90;89.30
46217;DHT22;47258;59.424;13.482;2023-04-01T14:09:32;6.90;88.50
46217;DHT22;47258;59.424;13.482;2023-04-01T14:12:03;6.90;87.30
46217;DHT22;47258;59.424;13.482;2023-04-01T14:14:33;6.90;89.00
46217;DHT22;47258;59.424;13.482;2023-04-01T14:17:10;6.90;89.90
46217;DHT22;47258;59.424;13.482;2023-04-01T14:22:27;6.90;89.50
46217;DHT22;47258;59.424;13.482;2023-04-01T14:25:01;6.90;90.00
46217;DHT22;47258;59.424;13.482;2023-04-01T14:27:34;6.90;90.20
46217;DHT22;47258;59.424;13.482;2023-04-01T14:32:46;6.90;90.60
46217;DHT22;47258;59.424;13.482;2023-04-01T14:38:01;7.00;90.10
46217;DHT22;47258;59.424;13.482;2023-04-01T14:40:33;7.00;90.10
46217;DHT22;47258;59.424;13.482;2023-04-01T14:43:16;7.00;88.60
46217;DHT22;47258;59.424;13.482;2023-04-01T14:48:32;7.00;89.70
46217;DHT22;47258;59.424;13.482;2023-04-01T14:51:03;7.00;89.40
46217;DHT22;47258;59.424;13.482;2023-04-01T14:53:32;7.00;89.40
46217;DHT22;47258;59.424;13.482;2023-04-01T14:56:04;7.00;90.00
46217;DHT22;47258;59.424;13.482;2023-04-01T14:58:39;7.00;90.20
46217;DHT22;47258;59.424;13.482;2023-04-01T15:01:10;7.00;90.50
46217;DHT22;47258;59.424;13.482;2023-04-01T15:03:44;7.00;90.30
46217;DHT22;47258;59.424;13.482;2023-04-01T15:06:26;7.00;89.70
46217;DHT22;47258;59.424;13.482;2023-04-01T15:08:56;7.00;89.00
46217;DHT22;47258;59.424;13.482;2023-04-01T15:11:28;6.90;88.30
46217;DHT22;47258;59.424;13.482;2023-04-01T15:14:04;6.90;88.90
46217;DHT22;47258;59.424;13.482;2023-04-01T15:16:34;6.90;88.40
46217;DHT22;47258;59.424;13.482;2023-04-01T15:19:06;6.90;88.50
46217;DHT22;47258;59.424;13.482;2023-04-01T15:21:42;6.90;89.70
46217;DHT22;47258;59.424;13.482;2023-04-01T15:24:13;6.90;89.30
46217;DHT22;47258;59.424;13.482;2023-04-01T15:26:48;6.90;89.90
46217;DHT22;47258;59.424;13.482;2023-04-01T15:29:23;6.90;89.40
46217;DHT22;47258;59.424;13.482;2023-04-01T15:31:54;6.90;88.50
46217;DHT22;47258;59.424;13.482;2023-04-01T15:34:26;6.90;88.50
46217;DHT22;47258;59.424;13.482;2023-04-01T15:36:56;6.80;87.70
46217;DHT22;47258;59.424;13.482;2023-04-01T15:39:28;6.90;88.40
46217;DHT22;47258;59.424;13.482;2023-04-01T15:42:05;6.90;88.30
46217;DHT22;47258;59.424;13.482;2023-04-01T15:44:41;6.90;88.40
46217;DHT22;47258;59.424;13.482;2023-04-01T15:47:22;6.90;88.90
46217;DHT22;47258;59.424;13.482;2023-04-01T15:49:52;6.80;88.20
46217;DHT22;47258;59.424;13.482;2023-04-01T15:52:21;6.90;88.00
46217;DHT22;47258;59.424;13.482;2023-04-01T15:54:56;6.80;88.10
46217;DHT22;47258;59.424;13.482;2023-04-01T15:57:26;6.80;88.50
46217;DHT22;47258;59.424;13.482;2023-04-01T16:00:10;6.80;89.10
46217;DHT22;47258;59.424;13.482;2023-04-01T16:02:40;6.80;89.00
46217;DHT22;47258;59.424;13.482;2023-04-01T16:05:11;6.80;89.40
46217;DHT22;47258;59.424;13.482;2023-04-01T16:07:53;6.80;89.70
46217;DHT22;47258;59.424;13.482;2023-04-01T16:10:25;6.80;90.00
46217;DHT22;47258;59.424;13.482;2023-04-01T16:12:59;6.80;90.00
46217;DHT22;47258;59.424;13.482;2023-04-01T16:15:33;6.80;90.10
46217;DHT22;47258;59.424;13.482;2023-04-01T16:20:53;6.80;88.10
46217;DHT22;47258;59.424;13.482;2023-04-01T16:23:22;6.80;88.20
46217;DHT22;47258;59.424;13.482;2023-04-01T16:25:54;6.80;88.40
46217;DHT22;47258;59.424;13.482;2023-04-01T16:28:28;6.80;88.70
46217;DHT22;47258;59.424;13.482;2023-04-01T16:30:57;6.80;89.10
46217;DHT22;47258;59.424;13.482;2023-04-01T16:33:27;6.70;88.30
46217;DHT22;47258;59.424;13.482;2023-04-01T16:35:58;6.70;88.00
46217;DHT22;47258;59.424;13.482;2023-04-01T16:38:27;6.70;88.90
46217;DHT22;47258;59.424;13.482;2023-04-01T16:41:04;6.70;89.20
46217;DHT22;47258;59.424;13.482;2023-04-01T16:43:35;6.70;89.30
46217;DHT22;47258;59.424;13.482;2023-04-01T16:46:17;6.70;89.90
46217;DHT22;47258;59.424;13.482;2023-04-01T16:48:50;6.70;89.10
46217;DHT22;47258;59.424;13.482;2023-04-01T16:51:20;6.70;89.20
46217;DHT22;47258;59.424;13.482;2023-04-01T16:53:49;6.60;89.90
46217;DHT22;47258;59.424;13.482;2023-04-01T16:56:20;6.60;90.00
46217;DHT22;47258;59.424;13.482;2023-04-01T16:58:50;6.60;89.60
46217;DHT22;47258;59.424;13.482;2023-04-01T17:01:21;6.60;89.70
46217;DHT22;47258;59.424;13.482;2023-04-01T17:03:52;6.60;89.80
46217;DHT22;47258;59.424;13.482;2023-04-01T17:06:22;6.50;90.00
46217;DHT22;47258;59.424;13.482;2023-04-01T17:08:55;6.50;89.90
46217;DHT22;47258;59.424;13.482;2023-04-01T17:11:29;6.50;89.80
46217;DHT22;47258;59.424;13.482;2023-04-01T17:14:01;6.50;90.40
46217;DHT22;47258;59.424;13.482;2023-04-01T17:19:22;6.40;91.10
46217;DHT22;47258;59.424;13.482;2023-04-01T17:21:56;6.30;90.90
46217;DHT22;47258;59.424;13.482;2023-04-01T17:24:32;6.30;90.90
46217;DHT22;47258;59.424;13.482;2023-04-01T17:27:09;6.20;90.70